Time,TemperatureF,DewpointF,PressureIn,WindDirection,WindDirectionDegrees,WindSpeedMPH,WindSpeedGustMPH,Humidity,HourlyPrecipIn,Conditions,Clouds,dailyrainin,SoftwareType,DateUTC
2013-02-22 00:00:00,17.7,15.8,30.09,SSW,199,4.0,8.0,92,0.00,,---,0.00,VWS V14.01,2013-02-22 06:00:00,
2013-02-22 00:30:00,17.5,15.6,30.09,South,179,7.0,9.0,92,0.00,,---,0.00,VWS V14.01,2013-02-22 06:30:00,
2013-02-22 01:00:00,17.2,15.3,30.09,SSE,166,4.0,11.0,92,0.00,,---,0.00,VWS V14.01,2013-02-22 07:00:00,
2013-02-22 01:30:00,17.3,15.4,30.09,SW,217,4.0,13.0,92,0.00,,---,0.00,VWS V14.01,2013-02-22 07:30:00,
2013-02-22 02:00:00,17.1,14.9,30.10,South,175,7.0,11.0,91,0.00,,---,0.00,VWS V14.01,2013-02-22 08:00:00,
2013-02-22 02:30:00,16.9,14.7,30.11,South,184,5.0,11.0,91,0.00,,---,0.00,VWS V14.01,2013-02-22 08:30:00,
2013-02-22 03:00:00,16.3,14.1,30.11,South,169,5.0,10.0,91,0.00,,---,0.00,VWS V14.01,2013-02-22 09:00:00,
2013-02-22 03:30:00,15.6,13.2,30.12,SSE,162,3.0,13.0,90,0.00,,---,0.00,VWS V14.01,2013-02-22 09:30:00,
2013-02-22 04:00:00,14.9,12.5,30.12,SSW,208,5.0,12.0,90,0.00,,---,0.00,VWS V14.01,2013-02-22 10:00:00,
2013-02-22 04:30:00,14.1,11.7,30.12,SE,145,4.0,10.0,90,0.00,,---,0.00,VWS V14.01,2013-02-22 10:30:00,
2013-02-22 05:00:00,13.3,10.9,30.13,South,175,5.0,9.0,90,0.00,,---,0.00,VWS V14.01,2013-02-22 11:00:00,
2013-02-22 05:30:00,12.3,9.9,30.13,South,173,3.0,11.0,90,0.00,,---,0.00,VWS V14.01,2013-02-22 11:30:00,
2013-02-22 06:00:00,10.6,8.5,30.13,South,180,5.0,5.0,91,0.00,,---,0.00,VWS V14.01,2013-02-22 12:00:00,
2013-02-22 06:30:00,12.2,9.8,30.13,SSE,149,3.0,10.0,90,0.00,,---,0.00,VWS V14.01,2013-02-22 12:30:00,
2013-02-22 07:00:00,11.1,8.5,30.14,South,177,2.0,8.0,89,0.00,,---,0.00,VWS V14.01,2013-02-22 13:00:00,
2013-02-22 07:30:00,9.8,7.0,30.16,SE,132,1.0,12.0,88,0.00,,---,0.00,VWS V14.01,2013-02-22 13:30:00,
2013-02-22 08:00:00,8.7,5.1,30.17,ESE,123,3.0,8.0,85,0.00,,---,0.00,VWS V14.01,2013-02-22 14:00:00,
2013-02-22 08:30:00,8.9,6.3,30.18,SSE,168,2.0,9.0,89,0.00,,---,0.00,VWS V14.01,2013-02-22 14:30:00,
2013-02-22 09:00:00,12.2,9.1,30.18,SSW,194,11.0,11.0,87,0.00,,---,0.00,VWS V14.01,2013-02-22 15:00:00,
2013-02-22 09:30:00,13.5,10.1,30.20,South,180,4.0,13.0,86,0.00,,---,0.00,VWS V14.01,2013-02-22 15:30:00,
2013-02-22 10:00:00,15.4,11.7,30.22,SSE,158,3.0,9.0,85,0.00,,---,0.00,VWS V14.01,2013-02-22 16:00:00,
2013-02-22 10:30:00,15.9,11.7,30.23,SE,140,3.0,11.0,83,0.00,,---,0.00,VWS V14.01,2013-02-22 16:30:00,
2013-02-22 11:00:00,17.0,12.5,30.23,South,184,3.0,12.0,82,0.00,,---,0.00,VWS V14.01,2013-02-22 17:00:00,
2013-02-22 11:30:00,17.6,12.5,30.25,SSE,152,3.0,11.0,80,0.00,,---,0.00,VWS V14.01,2013-02-22 17:30:00,
2013-02-22 12:00:00,18.7,13.6,30.24,SSW,196,7.0,11.0,80,0.00,,---,0.00,VWS V14.01,2013-02-22 18:00:00,
2013-02-22 12:30:00,19.8,14.1,30.24,SSE,157,7.0,12.0,78,0.00,,---,0.00,VWS V14.01,2013-02-22 18:30:00,
2013-02-22 13:00:00,20.0,14.0,30.23,South,180,7.0,13.0,77,0.00,,---,0.00,VWS V14.01,2013-02-22 19:00:00,
2013-02-22 13:30:00,21.1,14.7,30.23,SSE,155,4.0,11.0,76,0.00,,---,0.00,VWS V14.01,2013-02-22 19:30:00,
2013-02-22 14:00:00,21.9,15.2,30.22,SW,234,4.0,10.0,75,0.00,,---,0.00,VWS V14.01,2013-02-22 20:00:00,
2013-02-22 14:30:00,23.2,16.2,30.21,SE,142,10.0,11.0,74,0.00,,---,0.00,VWS V14.01,2013-02-22 20:30:00,
2013-02-22 15:00:00,22.9,15.6,30.21,SSE,162,3.0,14.0,73,0.00,,---,0.00,VWS V14.01,2013-02-22 21:00:00,
2013-02-22 15:30:00,23.0,16.0,30.22,South,182,3.0,10.0,74,0.00,,---,0.00,VWS V14.01,2013-02-22 21:30:00,
2013-02-22 16:00:00,23.1,15.8,30.22,SE,144,2.0,10.0,73,0.00,,---,0.00,VWS V14.01,2013-02-22 22:00:00,
2013-02-22 16:30:00,23.5,16.5,30.22,SE,125,4.0,9.0,74,0.00,,---,0.00,VWS V14.01,2013-02-22 22:30:00,
2013-02-22 17:00:00,22.7,16.0,30.22,SE,140,3.0,8.0,75,0.00,,---,0.00,VWS V14.01,2013-02-22 23:00:00,
2013-02-22 17:30:00,22.8,15.5,30.22,SSE,151,3.0,8.0,73,0.00,,---,0.00,VWS V14.01,2013-02-22 23:30:00,
2013-02-22 18:00:00,21.3,14.9,30.21,SE,134,1.0,6.0,76,0.00,,---,0.00,VWS V14.01,2013-02-23 00:00:00,
2013-02-22 18:30:00,20.1,14.9,30.21,SE,140,0.0,3.0,80,0.00,,---,0.00,VWS V14.01,2013-02-23 00:30:00,
2013-02-22 19:00:00,18.7,14.1,30.22,SE,139,0.0,3.0,82,0.00,,---,0.00,VWS V14.01,2013-02-23 01:00:00,
2013-02-22 19:30:00,17.7,14.0,30.22,SE,139,0.0,1.0,85,0.00,,---,0.00,VWS V14.01,2013-02-23 01:30:00,
2013-02-22 21:30:00,13.1,11.0,30.21,ESE,115,0.0,1.0,91,0.00,,---,0.00,VWS V14.01,2013-02-23 03:30:00,
2013-02-22 22:00:00,12.5,10.4,30.20,ESE,114,0.0,1.0,91,0.00,,---,0.00,VWS V14.01,2013-02-23 04:00:00,
2013-02-22 22:30:00,12.1,10.0,30.20,ESE,113,0.0,2.0,91,0.00,,---,0.00,VWS V14.01,2013-02-23 04:30:00,
2013-02-22 23:00:00,11.4,9.0,30.20,East,87,2.0,4.0,90,0.00,,---,0.00,VWS V14.01,2013-02-23 05:00:00,
2013-02-22 23:30:00,11.5,9.1,30.19,ESE,102,1.0,3.0,90,0.00,,---,0.00,VWS V14.01,2013-02-23 05:30:00,